Terminal Aerodrome Forecast
Issued by NWS Charleston, WV

Current Version | Previous Version | Text Only | Print | Product List | Glossary Off
Versions: 1 2 3 4 5 6 7 8 9 10 11 12 13 14 15 16 17 18 19 20 21 22

000
FTUS41 KRLX 092200 AAA
TAFBKW
TAF AMD
KBKW 092250Z 0923/1018 26005KT P6SM SCT035 BKN045
      TEMPO 0923/0924 5SM SHRA BKN030
     FM100000 26005KT P6SM BKN050
     FM100300 00000KT P6SM SCT040
     FM100600 00000KT 4SM BR SCT001=

USA.gov is the U.S. government's official web portal to all federal, state and local government web resources and services.